createdAt,value
2022-08-05T00:00:46.297Z,7.78
2022-08-05T00:03:15.858Z,8.40
2022-08-05T00:06:05.671Z,7.68
2022-08-05T00:08:35.500Z,7.97
2022-08-05T00:11:20.791Z,8.07
2022-08-05T00:13:56.493Z,7.60
2022-08-05T00:16:36.532Z,7.30
2022-08-05T00:19:13.145Z,7.60
2022-08-05T00:21:42.730Z,8.65
2022-08-05T00:24:16.115Z,8.23
2022-08-05T00:26:51.655Z,8.13
2022-08-05T00:29:22.369Z,8.35
2022-08-05T00:32:09.436Z,7.85
2022-08-05T00:34:55.195Z,7.78
2022-08-05T00:37:35.408Z,8.13
2022-08-05T00:40:17.747Z,8.63
2022-08-05T00:42:57.307Z,8.00
2022-08-05T00:45:38.783Z,6.63
2022-08-05T00:48:13.061Z,7.97
2022-08-05T00:50:44.113Z,7.55
2022-08-05T00:54:00.031Z,7.57
2022-08-05T00:56:01.596Z,7.38
2022-08-05T00:58:31.316Z,8.73
2022-08-05T01:00:59.558Z,7.22
2022-08-05T01:03:31.119Z,7.18
2022-08-05T01:06:03.960Z,7.63
2022-08-05T01:08:44.282Z,7.07
2022-08-05T01:11:22.409Z,6.88
2022-08-05T01:14:02.638Z,7.07
2022-08-05T01:16:35.140Z,8.27
2022-08-05T01:19:14.362Z,7.72
2022-08-05T01:22:15.511Z,7.20
2022-08-05T01:25:00.828Z,6.40
2022-08-05T01:27:57.670Z,6.70
2022-08-05T01:30:34.881Z,7.53
2022-08-05T01:33:08.285Z,8.10
2022-08-05T01:35:52.172Z,7.65
2022-08-05T01:38:24.788Z,7.10
2022-08-05T01:40:58.465Z,7.38
2022-08-05T01:43:29.446Z,7.63
2022-08-05T01:46:07.160Z,7.60
2022-08-05T01:48:49.762Z,7.82
2022-08-05T01:51:19.763Z,7.18
2022-08-05T01:53:57.823Z,7.53
2022-08-05T01:58:13.647Z,7.53
2022-08-05T01:59:24.581Z,7.30
2022-08-05T02:01:57.744Z,7.25
2022-08-05T02:04:29.951Z,7.63
2022-08-05T02:06:59.855Z,7.60
2022-08-05T02:09:32.273Z,7.25
2022-08-05T02:12:10.110Z,7.85
2022-08-05T02:14:47.136Z,7.45
2022-08-05T02:18:28.478Z,7.30
2022-08-05T02:20:21.217Z,7.32
2022-08-05T02:22:57.170Z,6.45
2022-08-05T02:25:33.273Z,7.20
2022-08-05T02:28:08.973Z,7.40
2022-08-05T02:30:54.181Z,6.90
2022-08-05T02:33:24.634Z,7.68
2022-08-05T02:36:09.332Z,7.70
2022-08-05T02:38:38.768Z,8.48
2022-08-05T02:41:17.003Z,7.00
2022-08-05T02:44:06.320Z,7.03
2022-08-05T02:46:53.493Z,7.22
2022-08-05T02:49:37.006Z,7.32
2022-08-05T02:52:10.058Z,7.20
2022-08-05T02:54:42.297Z,6.82
2022-08-05T02:58:19.659Z,6.85
2022-08-05T03:00:10.745Z,7.28
2022-08-05T03:02:43.038Z,7.03
2022-08-05T03:05:14.780Z,6.50
2022-08-05T03:08:01.081Z,7.45
2022-08-05T03:10:32.510Z,6.78
2022-08-05T03:15:29.269Z,8.13
2022-08-05T03:17:59.345Z,9.25
2022-08-05T03:20:27.870Z,8.60
2022-08-05T03:22:57.677Z,8.45
2022-08-05T03:25:33.207Z,9.43
2022-08-05T03:28:18.734Z,8.70
2022-08-05T03:30:49.693Z,11.45
2022-08-05T03:33:21.849Z,13.93
2022-08-05T03:35:51.709Z,18.20
2022-08-05T03:38:32.970Z,9.55
2022-08-05T03:41:08.381Z,12.50
2022-08-05T03:44:09.871Z,10.65
2022-08-05T03:46:26.674Z,17.73
2022-08-05T03:48:59.650Z,21.50
2022-08-05T03:52:35.477Z,10.35
2022-08-05T03:55:49.952Z,19.17
2022-08-05T03:57:35.132Z,8.25
2022-08-05T04:00:15.941Z,7.85
2022-08-05T04:02:58.105Z,7.63
2022-08-05T04:05:34.599Z,8.18
2022-08-05T04:08:05.655Z,9.75
2022-08-05T04:10:44.847Z,7.50
2022-08-05T04:13:13.705Z,8.20
2022-08-05T04:16:03.319Z,7.28
2022-08-05T04:18:30.539Z,7.53
2022-08-05T04:21:00.233Z,6.78
2022-08-05T04:24:04.909Z,7.78
2022-08-05T04:26:18.731Z,6.95
2022-08-05T04:28:51.128Z,8.05
2022-08-05T04:31:20.728Z,7.82
2022-08-05T04:34:17.269Z,7.45
2022-08-05T04:36:49.864Z,8.13
2022-08-05T04:39:18.672Z,7.28
2022-08-05T04:41:48.156Z,7.15
2022-08-05T04:44:21.413Z,8.48
2022-08-05T04:46:57.601Z,7.85
2022-08-05T04:49:39.148Z,6.90
2022-08-05T04:52:16.701Z,6.60
2022-08-05T04:54:47.197Z,7.45
2022-08-05T04:57:18.397Z,8.35
2022-08-05T04:59:48.006Z,7.63
2022-08-05T05:02:36.948Z,7.95
2022-08-05T05:05:17.016Z,7.95
2022-08-05T05:08:01.693Z,7.25
2022-08-05T05:10:33.377Z,8.73
2022-08-05T05:13:04.342Z,7.97
2022-08-05T05:15:57.135Z,7.90
2022-08-05T05:18:28.694Z,8.27
2022-08-05T05:21:03.259Z,7.47
2022-08-05T05:24:02.078Z,7.10
2022-08-05T05:26:28.677Z,7.55
2022-08-05T05:29:02.609Z,8.25
2022-08-05T05:34:05.730Z,7.50
2022-08-05T05:36:37.276Z,7.28
2022-08-05T05:39:11.060Z,7.78
2022-08-05T05:41:41.891Z,7.13
2022-08-05T05:44:36.897Z,7.93
2022-08-05T05:47:04.322Z,7.35
2022-08-05T05:49:33.463Z,6.68
2022-08-05T05:52:05.932Z,7.55
2022-08-05T05:54:50.941Z,6.95
2022-08-05T05:57:20.481Z,7.38
2022-08-05T05:59:49.214Z,7.88
2022-08-05T06:02:32.880Z,7.47
2022-08-05T06:05:10.266Z,7.80
2022-08-05T06:08:01.397Z,6.38
2022-08-05T06:10:36.352Z,7.90
2022-08-05T06:13:05.582Z,7.93
2022-08-05T06:16:29.922Z,6.95
2022-08-05T06:18:31.009Z,7.72
2022-08-05T06:21:01.064Z,7.10
2022-08-05T06:23:32.230Z,6.82
2022-08-05T06:26:20.804Z,7.13
2022-08-05T06:28:49.928Z,7.60
2022-08-05T06:31:22.404Z,7.10
2022-08-05T06:34:07.613Z,7.05
2022-08-05T06:36:57.618Z,7.88
2022-08-05T06:39:27.209Z,7.10
2022-08-05T06:42:04.058Z,7.43
2022-08-05T06:44:32.784Z,7.05
2022-08-05T06:47:02.218Z,7.50
2022-08-05T06:50:00.375Z,7.70
2022-08-05T06:52:37.007Z,7.38
2022-08-05T06:55:07.633Z,7.13
2022-08-05T06:58:03.158Z,7.30
2022-08-05T07:00:25.995Z,7.03
2022-08-05T07:02:54.503Z,6.75
2022-08-05T07:05:37.469Z,7.43
2022-08-05T07:08:10.598Z,7.20
2022-08-05T07:10:53.002Z,6.78
2022-08-05T07:13:58.206Z,7.53
2022-08-05T07:18:08.130Z,7.13
2022-08-05T07:22:34.241Z,7.20
2022-08-05T07:25:21.780Z,7.38
2022-08-05T07:27:58.272Z,7.10
2022-08-05T07:30:34.697Z,7.43
2022-08-05T07:33:10.397Z,6.75
2022-08-05T07:36:02.307Z,6.80
2022-08-05T07:38:35.692Z,6.80
2022-08-05T07:42:06.759Z,7.38
2022-08-05T07:44:02.306Z,7.05
2022-08-05T07:46:34.550Z,6.05
2022-08-05T07:49:07.754Z,7.28
2022-08-05T07:51:40.391Z,6.85
2022-08-05T07:54:11.450Z,7.75
2022-08-05T07:57:14.734Z,7.32
2022-08-05T07:59:31.365Z,7.30
2022-08-05T08:02:16.082Z,6.93
2022-08-05T08:04:48.352Z,7.93
2022-08-05T08:07:18.570Z,7.68
2022-08-05T08:09:53.139Z,7.40
2022-08-05T08:12:33.294Z,6.68
2022-08-05T08:15:15.159Z,7.28
2022-08-05T08:17:52.572Z,8.90
2022-08-05T08:20:59.705Z,7.57
2022-08-05T08:24:01.136Z,6.97
2022-08-05T08:26:02.762Z,6.88
2022-08-05T08:28:36.631Z,6.93
2022-08-05T08:31:15.117Z,6.95
2022-08-05T08:33:51.625Z,6.78
2022-08-05T08:36:38.691Z,6.90
2022-08-05T08:39:15.747Z,7.03
2022-08-05T08:41:51.168Z,8.07
2022-08-05T08:45:19.918Z,7.03
2022-08-05T08:47:21.930Z,7.32
2022-08-05T08:50:22.405Z,6.90
2022-08-05T08:52:54.025Z,6.65
2022-08-05T08:55:32.147Z,7.15
2022-08-05T08:58:16.105Z,7.03
2022-08-05T09:00:45.129Z,6.75
2022-08-05T09:03:16.298Z,7.60
2022-08-05T09:06:08.530Z,7.35
2022-08-05T09:08:40.063Z,7.85
2022-08-05T09:11:12.183Z,7.22
2022-08-05T09:14:09.139Z,6.40
2022-08-05T09:16:31.672Z,6.60
2022-08-05T09:19:00.151Z,6.95
2022-08-05T09:22:17.675Z,6.53
2022-08-05T09:24:18.661Z,6.53
2022-08-05T09:26:51.847Z,7.25
2022-08-05T09:29:20.933Z,7.13
2022-08-05T09:32:40.092Z,6.97
2022-08-05T09:34:55.032Z,7.30
2022-08-05T09:38:12.580Z,6.70
2022-08-05T09:40:30.637Z,7.50
2022-08-05T09:43:01.158Z,6.85
2022-08-05T09:46:07.571Z,7.55
2022-08-05T09:48:31.426Z,6.63
2022-08-05T09:51:02.109Z,6.78
2022-08-05T09:53:53.201Z,6.55
2022-08-05T09:56:27.541Z,7.25
2022-08-05T09:59:00.626Z,7.85
2022-08-05T10:01:31.815Z,6.93
2022-08-05T10:04:10.095Z,7.40
2022-08-05T10:06:41.470Z,7.10
2022-08-05T10:09:28.090Z,7.18
2022-08-05T10:12:18.925Z,7.43
2022-08-05T10:15:17.011Z,7.43
2022-08-05T10:18:02.687Z,6.93
2022-08-05T10:20:33.990Z,6.60
2022-08-05T10:23:03.376Z,6.28
2022-08-05T10:25:33.212Z,6.53
2022-08-05T10:28:13.129Z,6.95
2022-08-05T10:32:52.513Z,6.50
2022-08-05T10:33:36.173Z,6.68
2022-08-05T10:36:05.769Z,6.53
2022-08-05T10:38:36.746Z,6.35
2022-08-05T10:41:13.851Z,6.43
2022-08-05T10:43:51.878Z,7.93
2022-08-05T10:46:23.848Z,6.63
2022-08-05T10:49:01.501Z,7.07
2022-08-05T10:51:57.782Z,6.13
2022-08-05T10:54:56.791Z,6.55
2022-08-05T10:57:32.473Z,6.07
2022-08-05T11:00:17.867Z,6.57
2022-08-05T11:03:24.720Z,6.60
2022-08-05T11:06:16.074Z,6.22
2022-08-05T11:09:16.916Z,7.03
2022-08-05T11:11:53.653Z,6.35
2022-08-05T11:14:57.571Z,5.55
2022-08-05T11:18:00.117Z,6.22
2022-08-05T11:20:39.124Z,6.90
2022-08-05T11:24:04.354Z,6.18
2022-08-05T11:26:29.110Z,6.30
2022-08-05T11:29:11.552Z,6.45
2022-08-05T11:31:54.014Z,5.90
2022-08-05T11:34:38.687Z,6.90
2022-08-05T11:38:28.421Z,5.55
2022-08-05T11:40:03.010Z,6.32
2022-08-05T11:42:37.977Z,6.20
2022-08-05T11:45:23.109Z,6.35
2022-08-05T11:48:00.044Z,5.45
2022-08-05T11:50:29.132Z,4.85
2022-08-05T11:52:58.399Z,6.32
2022-08-05T11:55:32.151Z,5.60
2022-08-05T11:58:09.203Z,14.30
2022-08-05T12:00:41.330Z,6.25
2022-08-05T12:03:29.499Z,5.40
2022-08-05T12:06:02.811Z,5.63
2022-08-05T12:08:32.741Z,6.20
2022-08-05T12:11:05.626Z,5.20
2022-08-05T12:13:48.933Z,5.45
2022-08-05T12:16:26.936Z,5.68
2022-08-05T12:18:56.984Z,5.32
2022-08-05T12:21:29.914Z,5.90
2022-08-05T12:24:05.275Z,4.93
2022-08-05T12:26:36.845Z,5.55
2022-08-05T12:29:09.790Z,4.90
2022-08-05T12:31:53.072Z,5.75
2022-08-05T12:34:28.162Z,5.18
2022-08-05T12:36:57.932Z,4.78
2022-08-05T12:39:28.182Z,5.40
2022-08-05T12:42:14.882Z,5.10
2022-08-05T12:44:45.747Z,4.45
2022-08-05T12:47:28.837Z,4.25
2022-08-05T12:50:03.090Z,4.40
2022-08-05T12:52:41.780Z,5.05
2022-08-05T12:55:22.166Z,4.50
2022-08-05T12:58:50.396Z,4.22
2022-08-05T13:02:03.858Z,4.18
2022-08-05T13:03:41.810Z,4.10
2022-08-05T13:06:16.929Z,4.47
2022-08-05T13:08:52.482Z,4.03
2022-08-05T13:11:57.859Z,3.92
2022-08-05T13:14:20.076Z,4.60
2022-08-05T13:16:59.039Z,4.57
2022-08-05T13:19:40.471Z,4.18
2022-08-05T13:22:29.444Z,4.78
2022-08-05T13:25:05.780Z,4.28
2022-08-05T13:27:40.870Z,4.15
2022-08-05T13:30:34.984Z,4.60
2022-08-05T13:33:01.747Z,3.85
2022-08-05T13:35:47.342Z,3.92
2022-08-05T13:38:30.529Z,4.70
2022-08-05T13:41:03.781Z,5.13
2022-08-05T13:43:43.467Z,5.18
2022-08-05T13:46:16.179Z,5.00
2022-08-05T13:48:58.358Z,4.00
2022-08-05T13:51:36.571Z,4.60
2022-08-05T13:54:11.829Z,4.95
2022-08-05T13:56:50.996Z,4.57
2022-08-05T13:59:23.998Z,4.55
2022-08-05T14:01:57.425Z,5.05
2022-08-05T14:04:50.307Z,4.40
2022-08-05T14:07:55.410Z,4.75
2022-08-05T14:10:14.175Z,4.47
2022-08-05T14:12:48.431Z,4.18
2022-08-05T14:16:09.286Z,4.18
2022-08-05T14:18:14.789Z,4.53
2022-08-05T14:20:47.249Z,4.20
2022-08-05T14:23:23.827Z,4.28
2022-08-05T14:25:58.187Z,4.20
2022-08-05T14:28:29.594Z,4.20
2022-08-05T14:30:58.602Z,4.32
2022-08-05T14:33:26.877Z,4.20
2022-08-05T14:35:55.342Z,4.40
2022-08-05T14:38:31.612Z,4.53
2022-08-05T14:41:07.727Z,3.97
2022-08-05T14:43:58.911Z,4.22
2022-08-05T14:46:29.052Z,4.00
2022-08-05T14:48:59.514Z,4.10
2022-08-05T14:51:32.248Z,4.50
2022-08-05T14:54:26.262Z,4.53
2022-08-05T14:56:50.980Z,4.40
2022-08-05T14:59:22.022Z,3.83
2022-08-05T15:01:50.753Z,3.35
2022-08-05T15:04:20.730Z,4.10
2022-08-05T15:06:51.244Z,3.80
2022-08-05T15:09:52.487Z,3.95
2022-08-05T15:12:11.805Z,3.72
2022-08-05T15:14:50.176Z,3.38
2022-08-05T15:17:47.231Z,4.03
2022-08-05T15:20:18.934Z,3.80
2022-08-05T15:22:55.119Z,4.00
2022-08-05T15:25:40.969Z,3.60
2022-08-05T15:28:15.443Z,3.95
2022-08-05T15:30:45.859Z,3.65
2022-08-05T15:33:56.874Z,3.95
2022-08-05T15:36:04.951Z,3.88
2022-08-05T15:38:40.956Z,4.15
2022-08-05T15:41:20.459Z,4.43
2022-08-05T15:43:54.659Z,4.00
2022-08-05T15:46:24.811Z,3.90
2022-08-05T15:49:00.994Z,4.10
2022-08-05T15:52:10.017Z,4.22
2022-08-05T15:54:34.812Z,4.35
2022-08-05T15:57:07.334Z,4.30
2022-08-05T15:59:38.160Z,4.30
2022-08-05T16:02:09.590Z,5.18
2022-08-05T16:04:44.114Z,5.93
2022-08-05T16:07:13.356Z,7.30
2022-08-05T16:09:42.205Z,8.82
2022-08-05T16:12:12.148Z,8.43
2022-08-05T16:14:42.372Z,8.85
2022-08-05T16:17:12.667Z,8.65
2022-08-05T16:20:04.779Z,9.43
2022-08-05T16:22:34.058Z,8.82
2022-08-05T16:25:05.305Z,8.65
2022-08-05T16:27:59.937Z,8.98
2022-08-05T16:30:28.849Z,8.75
2022-08-05T16:32:58.437Z,9.32
2022-08-05T16:35:28.686Z,9.40
2022-08-05T16:38:15.554Z,9.00
2022-08-05T16:40:51.731Z,10.07
2022-08-05T16:43:25.087Z,8.93
2022-08-05T16:46:05.422Z,7.18
2022-08-05T16:48:38.250Z,7.65
2022-08-05T16:51:09.913Z,6.75
2022-08-05T16:54:04.112Z,7.60
2022-08-05T16:56:30.197Z,7.57
2022-08-05T16:58:58.887Z,6.65
2022-08-05T17:01:54.063Z,7.70
2022-08-05T17:04:20.137Z,7.38
2022-08-05T17:06:53.305Z,6.95
2022-08-05T17:09:23.213Z,7.22
2022-08-05T17:11:56.088Z,6.03
2022-08-05T17:14:37.326Z,6.63
2022-08-05T17:17:14.386Z,6.00
2022-08-05T17:19:46.070Z,6.13
2022-08-05T17:22:24.561Z,5.40
2022-08-05T17:24:57.563Z,5.25
2022-08-05T17:27:33.746Z,5.57
2022-08-05T17:30:12.133Z,4.82
2022-08-05T17:32:48.793Z,4.72
2022-08-05T17:35:20.631Z,5.38
2022-08-05T17:37:49.515Z,5.03
2022-08-05T17:40:22.584Z,5.90
2022-08-05T17:42:53.204Z,4.90
2022-08-05T17:45:37.967Z,5.05
2022-08-05T17:48:08.856Z,5.05
2022-08-05T17:50:37.361Z,4.55
2022-08-05T17:53:08.609Z,5.45
2022-08-05T17:55:39.766Z,4.85
2022-08-05T17:58:16.457Z,5.78
2022-08-05T18:00:50.920Z,4.88
2022-08-05T18:03:59.550Z,6.10
2022-08-05T18:06:15.029Z,5.60
2022-08-05T18:08:46.177Z,6.32
2022-08-05T18:11:23.876Z,7.10
2022-08-05T18:13:53.651Z,6.43
2022-08-05T18:16:21.875Z,6.78
2022-08-05T18:18:51.545Z,7.38
2022-08-05T18:21:22.668Z,7.03
2022-08-05T18:23:53.860Z,6.93
2022-08-05T18:26:27.474Z,6.57
2022-08-05T18:28:58.606Z,6.50
2022-08-05T18:31:33.144Z,7.03
2022-08-05T18:34:05.761Z,7.15
2022-08-05T18:36:36.285Z,7.68
2022-08-05T18:39:06.497Z,7.78
2022-08-05T18:41:55.477Z,8.20
2022-08-05T18:44:34.798Z,7.38
2022-08-05T18:47:04.893Z,6.85
2022-08-05T18:49:58.021Z,8.82
2022-08-05T18:52:35.999Z,7.53
2022-08-05T18:55:10.304Z,7.18
2022-08-05T18:57:43.359Z,7.95
2022-08-05T19:00:27.265Z,7.80
2022-08-05T19:03:04.125Z,6.85
2022-08-05T19:06:12.842Z,8.45
2022-08-05T19:08:30.264Z,7.82
2022-08-05T19:11:02.774Z,7.70
2022-08-05T19:13:35.920Z,8.00
2022-08-05T19:16:25.341Z,7.63
2022-08-05T19:18:56.784Z,7.55
2022-08-05T19:21:29.527Z,7.70
2022-08-05T19:24:09.001Z,7.07
2022-08-05T19:26:54.803Z,8.15
2022-08-05T19:29:26.703Z,7.47
2022-08-05T19:32:04.635Z,6.90
2022-08-05T19:34:33.110Z,7.20
2022-08-05T19:37:02.925Z,6.78
2022-08-05T19:39:31.910Z,7.65
2022-08-05T19:42:15.322Z,11.75
2022-08-05T19:44:44.938Z,7.10
2022-08-05T19:47:16.410Z,7.25
2022-08-05T19:49:45.113Z,6.85
2022-08-05T19:52:31.674Z,6.63
2022-08-05T19:55:07.203Z,6.65
2022-08-05T19:58:06.886Z,6.90
2022-08-05T20:00:38.500Z,6.10
2022-08-05T20:03:08.644Z,5.85
2022-08-05T20:05:43.268Z,5.50
2022-08-05T20:08:20.161Z,6.32
2022-08-05T20:10:49.464Z,6.20
2022-08-05T20:13:30.349Z,5.90
2022-08-05T20:16:07.752Z,6.18
2022-08-05T20:18:37.525Z,5.22
2022-08-05T20:21:06.965Z,5.60
2022-08-05T20:23:40.342Z,6.38
2022-08-05T20:26:20.826Z,6.80
2022-08-05T20:28:50.912Z,6.82
2022-08-05T20:31:21.647Z,6.55
2022-08-05T20:33:56.733Z,7.88
2022-08-05T20:36:25.884Z,7.40
2022-08-05T20:38:57.789Z,6.82
2022-08-05T20:41:44.160Z,6.22
2022-08-05T20:44:17.524Z,6.50
2022-08-05T20:46:48.567Z,5.50
2022-08-05T20:49:24.062Z,7.30
2022-08-05T20:51:54.447Z,5.70
2022-08-05T20:54:25.327Z,6.65
2022-08-05T20:56:53.892Z,6.10
2022-08-05T20:59:26.929Z,14.55
2022-08-05T21:02:10.714Z,6.65
2022-08-05T21:04:39.270Z,7.47
2022-08-05T21:07:08.918Z,8.32
2022-08-05T21:09:38.591Z,7.18
2022-08-05T21:12:21.931Z,7.20
2022-08-05T21:14:54.996Z,6.65
2022-08-05T21:17:26.181Z,8.95
2022-08-05T21:19:57.287Z,6.47
2022-08-05T21:22:27.490Z,7.60
2022-08-05T21:24:57.945Z,7.38
2022-08-05T21:27:27.466Z,7.40
2022-08-05T21:29:57.005Z,7.53
2022-08-05T21:32:25.513Z,8.98
2022-08-05T21:35:09.012Z,6.65
2022-08-05T21:37:47.444Z,6.75
2022-08-05T21:40:23.781Z,7.10
2022-08-05T21:42:53.930Z,6.57
2022-08-05T21:45:24.941Z,6.00
2022-08-05T21:48:08.121Z,6.97
2022-08-05T21:50:37.393Z,7.75
2022-08-05T21:53:16.252Z,7.40
2022-08-05T21:56:05.295Z,7.65
2022-08-05T21:58:34.818Z,7.03
2022-08-05T22:01:05.947Z,6.75
2022-08-05T22:03:48.998Z,7.07
2022-08-05T22:06:35.498Z,6.43
2022-08-05T22:09:13.887Z,7.60
2022-08-05T22:11:46.999Z,7.18
2022-08-05T22:14:34.667Z,7.32
2022-08-05T22:17:07.041Z,6.10
2022-08-05T22:19:57.246Z,6.45
2022-08-05T22:22:28.125Z,7.03
2022-08-05T22:25:21.586Z,6.72
2022-08-05T22:28:08.275Z,6.55
2022-08-05T22:30:44.270Z,6.82
2022-08-05T22:33:57.518Z,6.53
2022-08-05T22:36:15.365Z,7.72
2022-08-05T22:38:48.336Z,6.53
2022-08-05T22:42:04.921Z,7.50
2022-08-05T22:44:09.695Z,7.07
2022-08-05T22:46:41.119Z,7.90
2022-08-05T22:49:23.070Z,7.60
2022-08-05T22:52:04.498Z,7.10
2022-08-05T22:54:36.743Z,7.63
2022-08-05T22:57:05.933Z,7.03
2022-08-05T22:59:43.784Z,7.47
2022-08-05T23:02:17.655Z,7.35
2022-08-05T23:04:51.550Z,8.10
2022-08-05T23:07:22.169Z,8.18
2022-08-05T23:09:58.131Z,7.28
2022-08-05T23:12:32.388Z,7.97
2022-08-05T23:15:08.521Z,7.97
2022-08-05T23:18:01.458Z,6.43
2022-08-05T23:20:26.099Z,6.70
2022-08-05T23:22:55.842Z,6.57
2022-08-05T23:25:52.346Z,6.95
2022-08-05T23:28:15.961Z,7.22
2022-08-05T23:30:53.799Z,6.68
2022-08-05T23:33:26.223Z,7.43
2022-08-05T23:36:13.459Z,7.10
2022-08-05T23:38:43.501Z,6.28
2022-08-05T23:41:12.796Z,6.95
2022-08-05T23:44:04.290Z,6.63
2022-08-05T23:46:31.283Z,6.53
2022-08-05T23:49:02.174Z,7.35
2022-08-05T23:52:03.028Z,7.10
2022-08-05T23:54:38.267Z,6.35
2022-08-05T23:57:08.177Z,6.90
